createdAt,value
2022-10-27T00:01:01.980Z,7.13
2022-10-27T00:03:30.579Z,8.20
2022-10-27T00:06:05.114Z,7.77
2022-10-27T00:08:38.059Z,6.30
2022-10-27T00:11:08.625Z,5.50
2022-10-27T00:13:37.707Z,5.80
2022-10-27T00:16:08.295Z,4.28
2022-10-27T00:18:36.812Z,4.30
2022-10-27T00:21:09.515Z,4.87
2022-10-27T00:23:40.146Z,3.50
2022-10-27T00:26:11.375Z,3.25
2022-10-27T00:28:41.295Z,5.55
2022-10-27T00:31:15.112Z,3.40
2022-10-27T00:33:43.715Z,3.15
2022-10-27T00:36:13.705Z,2.67
2022-10-27T00:38:43.679Z,2.88
2022-10-27T00:41:28.207Z,3.70
2022-10-27T00:43:57.442Z,3.60
2022-10-27T00:46:33.520Z,4.13
2022-10-27T00:49:07.296Z,4.00
2022-10-27T00:51:35.993Z,2.58
2022-10-27T00:54:10.850Z,3.37
2022-10-27T00:56:40.277Z,2.22
2022-10-27T00:59:08.742Z,2.60
2022-10-27T01:01:38.746Z,2.40
2022-10-27T01:04:07.289Z,2.60
2022-10-27T01:06:37.821Z,2.20
2022-10-27T01:09:08.728Z,2.13
2022-10-27T01:11:36.921Z,2.50
2022-10-27T01:14:08.194Z,3.10
2022-10-27T01:16:46.873Z,2.50
2022-10-27T01:19:35.393Z,2.83
2022-10-27T01:22:12.999Z,4.03
2022-10-27T01:25:01.092Z,2.45
2022-10-27T01:28:00.765Z,2.90
2022-10-27T01:30:32.116Z,2.55
2022-10-27T01:33:15.422Z,2.70
2022-10-27T01:35:51.083Z,2.03
2022-10-27T01:38:22.909Z,2.38
2022-10-27T01:40:57.951Z,3.75
2022-10-27T01:43:28.910Z,2.20
2022-10-27T01:45:58.347Z,2.25
2022-10-27T01:48:29.020Z,2.73
2022-10-27T01:51:02.568Z,2.22
2022-10-27T01:53:33.742Z,2.10
2022-10-27T01:56:17.788Z,3.53
2022-10-27T01:59:03.860Z,2.28
2022-10-27T02:01:45.217Z,3.33
2022-10-27T02:04:24.022Z,1.92
2022-10-27T02:06:58.705Z,2.50
2022-10-27T02:09:34.272Z,3.88
2022-10-27T02:12:05.671Z,5.13
2022-10-27T02:14:36.899Z,5.97
2022-10-27T02:17:09.871Z,5.93
2022-10-27T02:19:42.464Z,5.47
2022-10-27T02:22:12.913Z,6.00
2022-10-27T02:24:41.292Z,4.87
2022-10-27T02:27:15.677Z,5.10
2022-10-27T02:29:48.647Z,5.55
2022-10-27T02:32:20.135Z,6.53
2022-10-27T02:34:51.406Z,5.97
2022-10-27T02:37:22.338Z,5.93
2022-10-27T02:39:50.536Z,5.78
2022-10-27T02:42:18.531Z,7.00
2022-10-27T02:44:46.643Z,5.63
2022-10-27T02:47:14.711Z,7.53
2022-10-27T02:49:42.811Z,6.22
2022-10-27T02:52:13.788Z,6.45
2022-10-27T02:54:42.227Z,7.57
2022-10-27T02:57:10.515Z,6.40
2022-10-27T02:59:38.760Z,8.82
2022-10-27T03:02:06.808Z,5.47
2022-10-27T03:04:35.280Z,6.07
2022-10-27T03:07:03.979Z,6.75
2022-10-27T03:09:33.591Z,7.45
2022-10-27T03:12:01.807Z,5.97
2022-10-27T03:14:30.493Z,6.97
2022-10-27T03:16:58.637Z,8.13
2022-10-27T03:19:28.942Z,11.32
2022-10-27T03:21:59.660Z,6.03
2022-10-27T03:24:27.803Z,7.28
2022-10-27T03:27:00.717Z,8.45
2022-10-27T03:29:29.015Z,10.93
2022-10-27T03:31:59.909Z,13.50
2022-10-27T03:34:28.283Z,11.85
2022-10-27T03:36:56.381Z,8.80
2022-10-27T03:39:27.201Z,10.13
2022-10-27T03:41:59.587Z,10.45
2022-10-27T03:44:28.450Z,9.45
2022-10-27T03:46:56.594Z,8.55
2022-10-27T03:49:25.243Z,8.73
2022-10-27T03:51:53.224Z,10.37
2022-10-27T03:54:22.392Z,10.47
2022-10-27T03:56:50.633Z,9.93
2022-10-27T03:59:21.251Z,12.30
2022-10-27T04:01:51.895Z,9.60
2022-10-27T04:04:20.367Z,8.70
2022-10-27T04:06:48.377Z,10.40
2022-10-27T04:09:17.784Z,8.38
2022-10-27T04:11:45.749Z,8.90
2022-10-27T04:14:17.631Z,11.68
2022-10-27T04:16:51.623Z,10.87
2022-10-27T04:19:20.044Z,15.13
2022-10-27T04:21:50.744Z,10.73
2022-10-27T04:24:19.255Z,14.30
2022-10-27T04:26:47.402Z,10.30
2022-10-27T04:29:15.685Z,13.07
2022-10-27T04:31:44.283Z,10.63
2022-10-27T04:34:14.100Z,15.60
2022-10-27T04:36:44.267Z,14.13
2022-10-27T04:39:14.220Z,19.30
2022-10-27T04:41:42.383Z,14.00
2022-10-27T04:44:11.113Z,24.40
2022-10-27T04:46:39.929Z,13.27
2022-10-27T04:49:08.180Z,16.50
2022-10-27T04:51:38.066Z,21.40
2022-10-27T04:54:07.150Z,18.95
2022-10-27T04:56:35.571Z,27.88
2022-10-27T04:59:03.773Z,28.27
2022-10-27T05:01:31.901Z,25.38
2022-10-27T05:04:00.186Z,48.17
2022-10-27T05:06:28.182Z,46.15
2022-10-27T05:08:58.192Z,31.75
2022-10-27T05:11:27.264Z,23.92
2022-10-27T05:13:56.522Z,19.80
2022-10-27T05:16:24.586Z,14.07
2022-10-27T05:18:53.684Z,13.10
2022-10-27T05:21:23.222Z,21.50
2022-10-27T05:23:51.314Z,24.65
2022-10-27T05:26:20.738Z,12.82
2022-10-27T05:28:49.181Z,13.98
2022-10-27T05:31:18.634Z,13.40
2022-10-27T05:33:47.362Z,12.63
2022-10-27T05:36:15.447Z,9.80
2022-10-27T05:38:47.962Z,9.57
2022-10-27T05:41:20.575Z,8.75
2022-10-27T05:43:48.699Z,9.13
2022-10-27T05:46:18.495Z,8.13
2022-10-27T05:48:46.779Z,12.23
2022-10-27T05:51:16.768Z,9.45
2022-10-27T05:53:51.139Z,11.77
2022-10-27T05:56:20.531Z,10.27
2022-10-27T05:58:48.530Z,10.05
2022-10-27T06:01:17.017Z,9.90
2022-10-27T06:03:45.148Z,13.77
2022-10-27T06:06:13.139Z,11.20
2022-10-27T06:08:41.218Z,12.63
2022-10-27T06:11:09.353Z,15.48
2022-10-27T06:13:39.233Z,14.90
2022-10-27T06:16:09.490Z,17.77
2022-10-27T06:18:40.365Z,15.27
2022-10-27T06:21:08.346Z,15.60
2022-10-27T06:23:37.904Z,11.93
2022-10-27T06:26:05.936Z,13.18
2022-10-27T06:28:39.004Z,19.33
2022-10-27T06:31:06.997Z,17.35
2022-10-27T06:33:34.973Z,10.30
2022-10-27T06:36:03.242Z,13.52
2022-10-27T06:38:31.154Z,33.07
2022-10-27T06:41:02.070Z,18.35
2022-10-27T06:43:29.974Z,12.88
2022-10-27T06:46:01.737Z,42.85
2022-10-27T06:48:30.106Z,33.67
2022-10-27T06:50:58.106Z,29.77
2022-10-27T06:53:26.190Z,26.90
2022-10-27T06:55:55.566Z,16.73
2022-10-27T06:58:23.557Z,24.23
2022-10-27T07:00:51.591Z,23.73
2022-10-27T07:03:20.935Z,27.15
2022-10-27T07:05:49.161Z,24.20
2022-10-27T07:08:17.311Z,20.52
2022-10-27T07:10:45.400Z,16.42
2022-10-27T07:13:13.390Z,19.25
2022-10-27T07:15:41.675Z,14.00
2022-10-27T07:18:11.412Z,16.88
2022-10-27T07:20:41.333Z,17.80
2022-10-27T07:23:11.214Z,18.65
2022-10-27T07:25:39.768Z,19.02
2022-10-27T07:28:08.321Z,16.60
2022-10-27T07:30:38.604Z,19.10
2022-10-27T07:33:06.822Z,14.20
2022-10-27T07:35:35.253Z,14.02
2022-10-27T07:38:05.488Z,16.20
2022-10-27T07:40:35.292Z,14.05
2022-10-27T07:43:07.947Z,15.77
2022-10-27T07:45:37.664Z,16.70
2022-10-27T07:48:06.954Z,15.03
2022-10-27T07:50:37.105Z,16.57
2022-10-27T07:53:06.615Z,15.20
2022-10-27T07:55:36.643Z,16.13
2022-10-27T07:58:07.736Z,19.27
2022-10-27T08:00:37.484Z,18.03
2022-10-27T08:03:06.984Z,16.63
2022-10-27T08:05:36.335Z,18.30
2022-10-27T08:08:07.452Z,17.37
2022-10-27T08:10:39.918Z,15.50
2022-10-27T08:13:08.633Z,16.08
2022-10-27T08:15:38.151Z,17.48
2022-10-27T08:18:06.824Z,16.77
2022-10-27T08:20:36.446Z,16.13
2022-10-27T08:23:09.266Z,16.50
2022-10-27T08:25:40.093Z,14.50
2022-10-27T08:28:08.329Z,22.37
2022-10-27T08:30:41.990Z,19.23
2022-10-27T08:33:14.096Z,19.63
2022-10-27T08:35:42.519Z,17.67
2022-10-27T08:38:15.034Z,17.17
2022-10-27T08:43:54.528Z,10.95
2022-10-27T08:46:26.976Z,11.05
2022-10-27T08:48:59.254Z,11.20
2022-10-27T08:51:28.751Z,14.37
2022-10-27T08:53:58.135Z,11.60
2022-10-27T08:56:33.027Z,11.70
2022-10-27T08:59:01.159Z,12.15
2022-10-27T09:01:35.246Z,9.10
2022-10-27T09:04:23.196Z,8.27
2022-10-27T09:07:03.602Z,9.85
2022-10-27T09:09:43.944Z,11.88
2022-10-27T09:12:20.359Z,8.80
2022-10-27T09:15:06.762Z,10.00
2022-10-27T09:17:41.214Z,12.10
2022-10-27T09:20:17.452Z,11.88
2022-10-27T09:22:45.471Z,9.55
2022-10-27T09:25:19.975Z,11.45
2022-10-27T09:27:53.020Z,9.25
2022-10-27T09:30:21.455Z,7.53
2022-10-27T09:32:53.676Z,10.38
2022-10-27T09:35:25.106Z,8.77
2022-10-27T09:37:53.679Z,10.40
2022-10-27T09:40:27.004Z,8.30
2022-10-27T09:42:56.869Z,7.53
2022-10-27T09:45:26.533Z,10.98
2022-10-27T09:47:57.987Z,8.17
2022-10-27T09:50:36.573Z,9.25
2022-10-27T09:53:05.599Z,9.68
2022-10-27T09:55:50.719Z,9.25
2022-10-27T09:58:19.478Z,9.18
2022-10-27T10:00:59.860Z,8.60
2022-10-27T10:03:28.487Z,11.10
2022-10-27T10:06:01.317Z,11.48
2022-10-27T10:08:31.490Z,9.60
2022-10-27T10:11:06.512Z,12.18
2022-10-27T10:13:38.502Z,12.07
2022-10-27T10:16:09.895Z,10.27
2022-10-27T10:18:40.598Z,11.90
2022-10-27T10:21:10.651Z,9.93
2022-10-27T10:23:49.166Z,11.43
2022-10-27T10:26:21.687Z,10.18
2022-10-27T10:28:53.136Z,11.38
2022-10-27T10:31:26.130Z,13.32
2022-10-27T10:33:59.219Z,11.73
2022-10-27T10:36:29.399Z,10.35
2022-10-27T10:39:00.318Z,11.27
2022-10-27T10:41:30.795Z,9.40
2022-10-27T10:44:15.505Z,13.27
2022-10-27T10:46:53.427Z,9.75
2022-10-27T10:49:24.442Z,9.50
2022-10-27T10:51:53.958Z,11.63
2022-10-27T10:54:26.579Z,11.73
2022-10-27T10:56:58.232Z,10.77
2022-10-27T10:59:29.960Z,10.55
2022-10-27T11:02:06.466Z,11.15
2022-10-27T11:04:42.484Z,9.07
2022-10-27T11:07:20.692Z,13.63
2022-10-27T11:09:56.921Z,10.68
2022-10-27T11:12:33.833Z,10.35
2022-10-27T11:15:05.956Z,9.35
2022-10-27T11:17:37.255Z,10.25
2022-10-27T11:20:08.192Z,11.10
2022-10-27T11:22:38.391Z,10.15
2022-10-27T11:25:12.960Z,11.10
2022-10-27T11:27:50.008Z,7.23
2022-10-27T11:30:23.104Z,10.68
2022-10-27T11:33:08.499Z,10.13
2022-10-27T11:35:42.145Z,12.38
2022-10-27T11:38:16.505Z,10.52
2022-10-27T11:40:55.408Z,12.02
2022-10-27T11:43:30.734Z,11.90
2022-10-27T11:46:06.571Z,11.57
2022-10-27T11:48:40.814Z,10.15
2022-10-27T11:51:18.241Z,11.93
2022-10-27T11:53:46.626Z,11.07
2022-10-27T11:56:27.611Z,10.70
2022-10-27T11:59:21.795Z,12.50
2022-10-27T12:02:04.722Z,11.57
2022-10-27T12:04:48.163Z,11.40
2022-10-27T12:07:27.636Z,8.70
2022-10-27T12:10:09.804Z,10.48
2022-10-27T12:12:40.305Z,11.15
2022-10-27T12:15:19.775Z,8.50
2022-10-27T12:17:51.504Z,9.20
2022-10-27T12:20:29.707Z,9.55
2022-10-27T12:23:03.776Z,10.35
2022-10-27T12:25:37.479Z,9.13
2022-10-27T12:30:46.928Z,7.97
2022-10-27T12:33:22.428Z,10.20
2022-10-27T12:35:55.590Z,9.73
2022-10-27T12:38:32.440Z,9.77
2022-10-27T12:41:07.810Z,9.50
2022-10-27T12:43:47.596Z,8.07
2022-10-27T12:46:40.276Z,9.23
2022-10-27T12:49:18.104Z,8.95
2022-10-27T12:51:56.492Z,7.63
2022-10-27T12:54:42.481Z,8.70
2022-10-27T12:57:27.296Z,11.75
2022-10-27T13:00:03.079Z,9.47
2022-10-27T13:02:39.884Z,10.23
2022-10-27T13:05:39.595Z,8.13
2022-10-27T13:08:27.232Z,7.15
2022-10-27T13:11:13.435Z,9.30
2022-10-27T13:14:09.340Z,8.70
2022-10-27T13:16:48.273Z,9.50
2022-10-27T13:19:28.455Z,11.85
2022-10-27T13:22:09.730Z,11.25
2022-10-27T13:24:45.916Z,9.55
2022-10-27T13:27:21.511Z,11.35
2022-10-27T13:29:55.073Z,10.90
2022-10-27T13:32:52.452Z,9.80
2022-10-27T13:35:37.724Z,12.68
2022-10-27T13:38:22.351Z,12.13
2022-10-27T13:40:51.079Z,15.30
2022-10-27T13:43:56.030Z,14.63
2022-10-27T13:47:08.936Z,11.88
2022-10-27T13:50:02.347Z,12.73
2022-10-27T13:52:33.296Z,10.27
2022-10-27T13:55:34.961Z,14.38
2022-10-27T13:58:31.516Z,13.70
2022-10-27T14:01:20.586Z,13.75
2022-10-27T14:04:12.100Z,13.13
2022-10-27T14:06:41.850Z,10.88
2022-10-27T14:09:23.096Z,11.07
2022-10-27T14:11:53.681Z,9.57
2022-10-27T14:14:30.062Z,10.05
2022-10-27T14:17:01.399Z,12.02
2022-10-27T14:19:33.026Z,8.33
2022-10-27T14:22:01.433Z,12.02
2022-10-27T14:24:43.694Z,13.23
2022-10-27T14:27:16.949Z,15.70
2022-10-27T14:29:45.539Z,13.35
2022-10-27T14:32:15.066Z,12.02
2022-10-27T14:34:43.361Z,15.13
2022-10-27T14:37:19.017Z,13.95
2022-10-27T14:39:52.525Z,15.05
2022-10-27T14:42:27.064Z,9.70
2022-10-27T14:45:01.172Z,11.43
2022-10-27T14:47:30.736Z,10.43
2022-10-27T14:50:03.635Z,12.32
2022-10-27T14:52:36.869Z,11.15
2022-10-27T14:55:19.087Z,12.02
2022-10-27T14:57:51.367Z,13.32
2022-10-27T15:00:25.502Z,12.77
2022-10-27T15:02:54.206Z,13.45
2022-10-27T15:05:26.853Z,19.25
2022-10-27T15:07:56.540Z,15.07
2022-10-27T15:10:27.903Z,16.33
2022-10-27T15:12:58.520Z,11.48
2022-10-27T15:15:32.367Z,10.93
2022-10-27T15:18:06.388Z,11.52
2022-10-27T15:20:35.971Z,9.60
2022-10-27T15:23:04.891Z,10.67
2022-10-27T15:25:34.318Z,9.00
2022-10-27T15:28:03.697Z,8.70
2022-10-27T15:30:32.022Z,8.87
2022-10-27T15:32:59.991Z,8.30
2022-10-27T15:35:31.298Z,7.47
2022-10-27T15:38:02.813Z,12.13
2022-10-27T15:40:51.082Z,13.68
2022-10-27T15:43:27.324Z,10.07
2022-10-27T15:46:10.816Z,9.02
2022-10-27T15:48:40.127Z,12.65
2022-10-27T15:51:11.192Z,9.52
2022-10-27T15:53:49.280Z,8.63
2022-10-27T15:56:41.257Z,15.70
2022-10-27T15:59:15.378Z,11.02
2022-10-27T16:01:55.120Z,10.25
2022-10-27T16:04:33.196Z,11.20
2022-10-27T16:07:31.712Z,12.13
2022-10-27T16:09:59.941Z,9.47
2022-10-27T16:12:42.557Z,10.00
2022-10-27T16:15:20.743Z,9.93
2022-10-27T16:17:52.137Z,10.13
2022-10-27T16:20:22.042Z,8.48
2022-10-27T16:22:50.790Z,8.05
2022-10-27T16:25:20.589Z,11.38
2022-10-27T16:27:50.095Z,11.02
2022-10-27T16:30:20.387Z,11.05
2022-10-27T16:32:50.752Z,10.13
2022-10-27T16:35:20.277Z,11.77
2022-10-27T16:37:48.294Z,10.47
2022-10-27T16:40:18.538Z,13.10
2022-10-27T16:42:53.536Z,13.23
2022-10-27T16:45:22.099Z,15.75
2022-10-27T16:47:51.704Z,13.20
2022-10-27T16:50:20.453Z,12.80
2022-10-27T16:52:52.858Z,12.02
2022-10-27T16:55:21.748Z,16.33
2022-10-27T16:57:51.456Z,20.52
2022-10-27T17:00:19.924Z,12.57
2022-10-27T17:02:50.074Z,14.50
2022-10-27T17:05:18.265Z,17.00
2022-10-27T17:07:48.428Z,12.38
2022-10-27T17:10:17.024Z,14.13
2022-10-27T17:12:45.133Z,15.87
2022-10-27T17:15:16.533Z,18.00
2022-10-27T17:17:44.807Z,12.20
2022-10-27T17:20:16.912Z,14.93
2022-10-27T17:22:45.652Z,9.60
2022-10-27T17:25:13.795Z,10.80
2022-10-27T17:27:41.799Z,11.23
2022-10-27T17:30:10.849Z,10.02
2022-10-27T17:32:40.329Z,14.57
2022-10-27T17:35:10.631Z,8.70
2022-10-27T17:37:38.994Z,12.40
2022-10-27T17:40:07.859Z,14.48
2022-10-27T17:42:35.872Z,20.70
2022-10-27T17:45:06.607Z,18.70
2022-10-27T17:47:35.875Z,19.63
2022-10-27T17:50:08.998Z,17.30
2022-10-27T17:52:37.586Z,18.57
2022-10-27T17:55:14.224Z,18.15
2022-10-27T17:57:42.177Z,17.35
2022-10-27T18:00:13.754Z,17.23
2022-10-27T18:02:42.097Z,17.30
2022-10-27T18:05:12.463Z,19.52
2022-10-27T18:07:40.435Z,14.80
2022-10-27T18:10:09.287Z,16.50
2022-10-27T18:12:37.308Z,19.23
2022-10-27T18:15:23.981Z,21.63
2022-10-27T18:17:53.623Z,20.13
2022-10-27T18:20:22.912Z,20.33
2022-10-27T18:22:53.134Z,20.43
2022-10-27T18:25:21.367Z,20.05
2022-10-27T18:27:50.035Z,18.55
2022-10-27T18:30:18.303Z,15.23
2022-10-27T18:32:46.422Z,21.95
2022-10-27T18:35:14.465Z,15.85
2022-10-27T18:37:43.808Z,18.52
2022-10-27T18:40:13.625Z,16.02
2022-10-27T18:42:47.757Z,14.68
2022-10-27T18:45:15.978Z,17.27
2022-10-27T18:47:45.736Z,13.95
2022-10-27T18:50:13.687Z,10.93
2022-10-27T18:52:42.987Z,10.83
2022-10-27T18:55:11.175Z,14.68
2022-10-27T18:57:42.131Z,16.92
2022-10-27T19:00:11.426Z,18.98
2022-10-27T19:02:39.525Z,18.80
2022-10-27T19:05:08.521Z,15.93
2022-10-27T19:07:36.646Z,13.75
2022-10-27T19:10:09.698Z,12.60
2022-10-27T19:12:37.791Z,16.75
2022-10-27T19:15:06.740Z,15.82
2022-10-27T19:17:35.774Z,19.55
2022-10-27T19:20:03.714Z,14.50
2022-10-27T19:22:31.659Z,27.23
2022-10-27T19:24:59.537Z,20.80
2022-10-27T19:27:28.914Z,15.05
2022-10-27T19:29:56.938Z,22.27
2022-10-27T19:32:27.390Z,18.65
2022-10-27T19:34:55.678Z,15.93
2022-10-27T19:37:23.631Z,16.27
2022-10-27T19:39:52.562Z,17.75
2022-10-27T19:42:20.869Z,16.05
2022-10-27T19:44:51.946Z,15.70
2022-10-27T19:47:20.132Z,18.30
2022-10-27T19:49:48.314Z,17.77
2022-10-27T19:52:18.549Z,17.20
2022-10-27T19:54:47.587Z,17.60
2022-10-27T19:57:15.580Z,16.88
2022-10-27T19:59:44.687Z,21.10
2022-10-27T20:02:14.449Z,17.05
2022-10-27T20:04:42.690Z,22.10
2022-10-27T20:07:12.568Z,14.90
2022-10-27T20:09:41.484Z,11.48
2022-10-27T20:12:09.858Z,12.10
2022-10-27T20:14:43.398Z,11.93
2022-10-27T20:17:11.498Z,13.38
2022-10-27T20:19:45.039Z,11.77
2022-10-27T20:22:17.350Z,11.13
2022-10-27T20:24:45.284Z,19.60
2022-10-27T20:27:13.195Z,11.68
2022-10-27T20:29:41.162Z,15.70
2022-10-27T20:32:09.700Z,17.23
2022-10-27T20:34:39.796Z,23.00
2022-10-27T20:37:09.370Z,17.00
2022-10-27T20:39:37.396Z,16.13
2022-10-27T20:42:06.756Z,17.37
2022-10-27T20:44:34.699Z,15.30
2022-10-27T20:47:02.795Z,13.95
2022-10-27T20:49:33.310Z,16.63
2022-10-27T20:52:01.360Z,22.20
2022-10-27T20:54:31.289Z,20.33
2022-10-27T20:56:59.224Z,16.80
2022-10-27T20:59:27.170Z,18.30
2022-10-27T21:01:56.265Z,13.77
2022-10-27T21:04:24.377Z,15.03
2022-10-27T21:06:52.466Z,15.93
2022-10-27T21:09:22.142Z,13.95
2022-10-27T21:11:51.535Z,18.17
2022-10-27T21:14:20.357Z,21.98
2022-10-27T21:16:51.307Z,17.45
2022-10-27T21:19:19.966Z,18.50
2022-10-27T21:21:48.398Z,14.53
2022-10-27T21:24:17.511Z,16.00
2022-10-27T21:26:46.059Z,14.07
2022-10-27T21:29:15.564Z,13.40
2022-10-27T21:31:46.611Z,18.08
2022-10-27T21:34:15.710Z,16.90
2022-10-27T21:36:43.679Z,14.50
2022-10-27T21:39:14.927Z,13.70
2022-10-27T21:41:43.359Z,14.80
2022-10-27T21:44:11.451Z,13.45
2022-10-27T21:46:40.847Z,16.42
2022-10-27T21:49:11.363Z,17.90
2022-10-27T21:51:42.246Z,14.27
2022-10-27T21:54:11.508Z,19.45
2022-10-27T21:56:42.601Z,15.55
2022-10-27T21:59:10.990Z,15.35
2022-10-27T22:01:40.546Z,14.70
2022-10-27T22:04:08.858Z,14.53
2022-10-27T22:06:36.874Z,14.60
2022-10-27T22:09:05.709Z,12.40
2022-10-27T22:11:35.528Z,14.38
2022-10-27T22:14:04.715Z,13.47
2022-10-27T22:16:34.631Z,15.20
2022-10-27T22:19:05.966Z,18.33
2022-10-27T22:21:36.354Z,15.73
2022-10-27T22:24:05.386Z,13.02
2022-10-27T22:26:34.045Z,17.15
2022-10-27T22:29:02.046Z,19.52
2022-10-27T22:31:32.472Z,13.50
2022-10-27T22:34:02.909Z,18.17
2022-10-27T22:36:34.243Z,13.75
2022-10-27T22:39:03.908Z,16.23
2022-10-27T22:41:34.291Z,15.30
2022-10-27T22:44:02.312Z,13.40
2022-10-27T22:46:31.749Z,11.32
2022-10-27T22:49:00.146Z,15.97
2022-10-27T22:51:32.422Z,14.55
2022-10-27T22:54:02.073Z,18.00
2022-10-27T22:56:31.513Z,11.95
2022-10-27T22:59:03.143Z,13.52
2022-10-27T23:01:33.347Z,16.45
2022-10-27T23:04:03.255Z,13.20
2022-10-27T23:06:34.722Z,14.03
2022-10-27T23:09:04.682Z,13.43
2022-10-27T23:11:35.497Z,11.77
2022-10-27T23:14:07.056Z,13.07
2022-10-27T23:16:35.887Z,15.17
2022-10-27T23:19:04.816Z,11.25
2022-10-27T23:21:35.532Z,12.40
2022-10-27T23:24:07.609Z,12.43
2022-10-27T23:26:38.685Z,10.35
2022-10-27T23:29:13.269Z,9.18
2022-10-27T23:31:41.618Z,12.50
2022-10-27T23:34:09.568Z,14.23
2022-10-27T23:36:39.376Z,11.10
2022-10-27T23:39:07.630Z,13.15
2022-10-27T23:41:35.512Z,12.20
2022-10-27T23:44:03.541Z,9.85
2022-10-27T23:46:31.862Z,16.23
2022-10-27T23:49:00.542Z,15.45
2022-10-27T23:51:29.216Z,13.73
2022-10-27T23:53:58.680Z,14.70
2022-10-27T23:56:26.752Z,10.18
2022-10-27T23:58:54.994Z,11.40
